Time;durP1;ratioP1;P1;durP2;ratioP2;P2;SDS_P1;SDS_P2;PMS_P1;PMS_P2;Temp;Humidity;BMP_temperature;BMP_pressure;BME280_temperature;BME280_humidity;BME280_pressure;Samples;Min_cycle;Max_cycle;Signal;HPM_P1;HPM_P2
2022/05/08 14:54:33;;;;;;;23.83;3.20;;;;;;;18.88;42.94;102734.72;5130023;27;20365;-35
2022/05/08 14:56:58;;;;;;;27.77;7.28;;;;;;;18.97;42.46;102730.81;5094049;28;20044;-34
2022/05/08 14:59:24;;;;;;;30.65;3.92;;;;;;;18.98;42.22;102721.59;5098215;28;20024;-36
2022/05/08 15:01:49;;;;;;;20.60;2.75;;;;;;;19.00;42.81;102738.63;5103975;28;20600;-34
2022/05/08 15:04:16;;;;;;;18.00;3.10;;;;;;;19.04;42.95;102739.94;5085056;28;20036;-37
2022/05/08 15:06:41;;;;;;;41.55;3.78;;;;;;;18.72;42.93;102727.56;5103698;28;20038;-35
2022/05/08 15:09:10;;;;;;;28.05;3.58;;;;;;;18.75;42.73;102729.09;5107464;28;20106;-37
2022/05/08 15:11:37;;;;;;;24.98;3.47;;;;;;;18.65;42.44;102732.91;5070283;28;20127;-36
2022/05/08 15:14:03;;;;;;;16.83;3.30;;;;;;;18.42;43.23;102729.44;5092193;28;20468;-35
2022/05/08 15:16:28;;;;;;;13.95;3.08;;;;;;;18.35;43.73;102725.78;5107542;28;20060;-34
2022/05/08 15:18:53;;;;;;;29.52;3.20;;;;;;;18.29;44.18;102721.09;5108335;28;20099;-37
2022/05/08 15:21:20;;;;;;;30.63;3.85;;;;;;;18.23;43.94;102710.94;5107482;28;20038;-36
2022/05/08 15:23:46;;;;;;;25.73;3.60;;;;;;;18.01;44.35;102719.00;5088913;28;20429;-34
2022/05/08 15:26:13;;;;;;;23.63;3.45;;;;;;;18.04;44.48;102715.91;5087791;28;20024;-35
2022/05/08 15:28:38;;;;;;;23.98;4.25;;;;;;;18.08;44.48;102709.03;5087668;28;20028;-33
2022/05/08 15:31:04;;;;;;;23.08;4.25;;;;;;;18.06;45.01;102716.56;5087438;28;20028;-34
2022/05/08 15:33:29;;;;;;;24.85;3.88;;;;;;;18.24;44.92;102718.06;5085217;28;20443;-37
2022/05/08 15:35:55;;;;;;;24.13;3.45;;;;;;;18.37;44.01;102710.09;5069495;28;20032;-35
2022/05/08 15:38:20;;;;;;;20.48;3.67;;;;;;;18.31;43.80;102710.84;5087270;28;20059;-36
2022/05/08 15:40:46;;;;;;;27.65;4.18;;;;;;;17.97;45.13;102712.22;5087296;28;20772;-35
2022/05/08 15:43:11;;;;;;;22.60;3.20;;;;;;;17.89;45.88;102717.75;5069069;28;20399;-33
2022/05/08 15:45:36;;;;;;;18.08;3.30;;;;;;;17.93;45.35;102719.94;5087053;28;20493;-37
2022/05/08 15:48:02;;;;;;;22.77;3.92;;;;;;;18.06;45.09;102722.03;5068760;28;20382;-34
2022/05/08 15:50:28;;;;;;;23.73;3.83;;;;;;;18.03;45.37;102716.91;5086528;28;20072;-37
2022/05/08 15:52:54;;;;;;;23.58;3.65;;;;;;;17.94;45.73;102710.72;5083202;28;20044;-34
2022/05/08 15:55:23;;;;;;;29.83;3.60;;;;;;;17.83;46.16;102715.78;5087407;28;20036;-35
2022/05/08 15:57:52;;;;;;;23.35;4.03;;;;;;;17.74;46.27;102706.78;5087379;28;20036;-35
2022/05/08 16:00:18;;;;;;;29.50;4.15;;;;;;;17.65;46.86;102713.34;5087888;28;20107;-36
2022/05/08 16:02:44;;;;;;;21.17;2.97;;;;;;;17.60;47.03;102704.88;5088525;28;20036;-34
2022/05/08 16:05:10;;;;;;;27.88;3.92;;;;;;;17.60;46.76;102704.88;5061216;28;20074;-35
2022/05/08 16:07:36;;;;;;;23.75;4.00;;;;;;;17.31;47.22;102706.47;5073020;28;20044;-36
2022/05/08 16:10:03;;;;;;;21.88;3.92;;;;;;;17.24;47.61;102710.91;5048112;28;20016;-35
2022/05/08 16:23:11;;;;;;;25.63;3.97;;;;;;;17.11;48.04;102717.81;5049314;28;20120;-35
2022/05/08 16:23:27;;;;;;;31.25;3.50;;;;;;;16.78;50.14;102710.88;5074998;28;20486;-34
2022/05/08 16:25:52;;;;;;;23.33;4.15;;;;;;;16.70;50.38;102713.59;5074262;28;20099;-37
2022/05/08 16:28:17;;;;;;;19.60;3.80;;;;;;;16.55;50.04;102700.72;5039528;28;20487;-35
2022/05/08 16:30:43;;;;;;;28.92;4.60;;;;;;;16.55;50.42;102705.31;5073682;28;20158;-35
2022/05/08 16:33:09;;;;;;;25.58;4.72;;;;;;;16.54;50.97;102706.34;5074333;28;20371;-36
2022/05/08 16:35:34;;;;;;;28.42;4.00;;;;;;;16.53;50.91;102702.78;5073965;28;20372;-35
2022/05/08 16:38:00;;;;;;;28.33;3.92;;;;;;;16.32;51.29;102706.06;5057856;28;20033;-34
2022/05/08 16:40:26;;;;;;;20.10;4.32;;;;;;;16.29;51.79;102700.97;5066154;28;20031;-38
2022/05/08 16:42:54;;;;;;;27.05;4.00;;;;;;;16.35;51.78;102700.31;5058715;28;20025;-35
2022/05/08 16:45:21;;;;;;;30.38;4.72;;;;;;;16.36;51.42;102706.59;5047737;28;20037;-33
2022/05/08 16:47:47;;;;;;;20.33;3.70;;;;;;;16.29;51.92;102697.44;5070517;28;20055;-36
2022/05/08 16:50:12;;;;;;;27.20;3.28;;;;;;;16.33;51.27;102706.94;5058255;28;20060;-34
2022/05/08 16:52:38;;;;;;;25.45;3.50;;;;;;;16.10;51.34;102699.50;5041109;28;20068;-34
2022/05/08 16:55:03;;;;;;;25.50;3.63;;;;;;;15.99;52.55;102700.72;5057540;28;20072;-35
2022/05/08 16:57:29;;;;;;;23.83;3.50;;;;;;;15.95;52.65;102698.53;5061131;28;20083;-34
2022/05/08 16:59:55;;;;;;;31.23;3.90;;;;;;;15.97;52.71;102691.91;5059211;28;20438;-34
2022/05/08 17:02:20;;;;;;;36.03;4.45;;;;;;;15.99;52.61;102700.72;5057659;28;20032;-34
2022/05/08 17:04:45;;;;;;;25.73;3.28;;;;;;;15.96;52.73;102692.94;5059684;28;20065;-33
2022/05/08 17:07:11;;;;;;;27.05;3.42;;;;;;;15.92;52.78;102693.44;5039678;28;20068;-36
2022/05/08 17:09:36;;;;;;;27.73;3.38;;;;;;;15.83;53.07;102697.19;5058265;28;20135;-36
2022/05/08 17:12:02;;;;;;;32.08;3.30;;;;;;;15.84;53.30;102701.59;5058393;28;20039;-35
2022/05/08 17:14:28;;;;;;;25.95;3.75;;;;;;;15.84;53.29;102702.44;5058193;28;20024;-35
2022/05/08 17:16:53;;;;;;;34.70;3.63;;;;;;;15.87;53.24;102696.66;5047400;28;20061;-33
2022/05/08 17:19:19;;;;;;;43.75;5.15;;;;;;;15.84;53.31;102691.59;5037752;28;20059;-36
2022/05/08 17:21:46;;;;;;;32.60;4.50;;;;;;;15.71;53.69;102689.38;5058491;28;20115;-33
2022/05/08 17:24:12;;;;;;;35.88;4.72;;;;;;;15.59;54.35;102694.28;5057944;28;20089;-34
2022/05/08 17:29:22;;;;;;;31.00;3.20;;;;;;;15.46;54.28;102688.53;5054475;28;20067;-34
2022/05/08 17:31:47;;;;;;;24.23;4.13;;;;;;;15.43;54.95;102688.88;5066740;28;20028;-34
2022/05/08 17:34:12;;;;;;;41.20;3.55;;;;;;;15.36;54.69;102688.69;5062099;28;20083;-35
2022/05/08 17:36:38;;;;;;;27.05;3.55;;;;;;;15.35;55.34;102691.59;5067944;28;20052;-34
2022/05/08 17:39:03;;;;;;;30.35;3.55;;;;;;;15.36;55.33;102693.25;5066754;28;20509;-37
2022/05/08 17:41:28;;;;;;;23.67;3.67;;;;;;;15.42;54.94;102698.00;5070372;28;20078;-34
2022/05/08 17:43:54;;;;;;;28.70;3.33;;;;;;;15.33;55.19;102696.31;5070585;28;20040;-34
2022/05/08 17:46:20;;;;;;;25.55;3.55;;;;;;;15.25;55.16;102699.88;5069358;28;20078;-36
2022/05/08 17:48:46;;;;;;;30.48;4.03;;;;;;;15.27;55.71;102699.69;5067958;28;20495;-35
2022/05/08 17:51:11;;;;;;;22.52;3.28;;;;;;;15.25;55.90;102693.59;5069006;28;20084;-36
2022/05/08 17:53:36;;;;;;;30.73;4.35;;;;;;;15.21;55.86;102697.66;5070288;28;20154;-33
2022/05/08 17:56:02;;;;;;;36.47;4.47;;;;;;;15.21;56.23;102694.94;5069967;28;20028;-34
2022/05/08 17:58:29;;;;;;;24.05;3.58;;;;;;;15.19;56.51;102686.13;5052313;28;20040;-36
2022/05/08 18:00:55;;;;;;;25.25;3.58;;;;;;;15.12;57.10;102691.38;5066130;28;20084;-34
2022/05/08 18:06:06;;;;;;;26.75;3.50;;;;;;;15.15;56.64;102685.59;5070551;28;20098;-34
2022/05/08 18:08:32;;;;;;;26.65;4.53;;;;;;;15.06;56.19;102684.75;5070798;28;20063;-34
2022/05/08 18:10:59;;;;;;;33.70;3.17;;;;;;;14.97;57.08;102682.19;5070757;28;20032;-34
2022/05/08 18:13:25;;;;;;;31.25;3.83;;;;;;;14.87;57.85;102682.31;5070686;28;20643;-34
2022/05/08 18:15:51;;;;;;;30.63;4.40;;;;;;;14.73;58.20;102691.94;5069986;28;20037;-33
2022/05/08 18:18:17;;;;;;;20.90;3.20;;;;;;;14.70;58.75;102686.84;5070154;28;20525;-34
2022/05/08 18:20:42;;;;;;;34.28;4.03;;;;;;;14.74;58.77;102693.63;5062370;28;20045;-34
2022/05/08 18:23:08;;;;;;;29.80;3.60;;;;;;;14.72;59.32;102690.25;5070430;28;20464;-34
2022/05/08 18:25:33;;;;;;;26.88;4.50;;;;;;;14.68;59.66;102678.88;5053312;28;20047;-32
2022/05/08 18:27:59;;;;;;;27.63;3.97;;;;;;;14.67;59.28;102681.78;5041838;28;20456;-33
2022/05/08 18:30:24;;;;;;;26.05;3.40;;;;;;;14.63;59.63;102692.06;5061749;28;20129;-33
2022/05/08 18:32:55;;;;;;;27.00;4.22;;;;;;;14.68;59.51;102694.28;5070429;28;20032;-33
2022/05/08 18:35:20;;;;;;;26.52;3.70;;;;;;;14.63;59.79;102689.34;5070149;28;20029;-34
2022/05/08 18:37:45;;;;;;;28.77;3.70;;;;;;;14.58;59.92;102694.41;5065564;28;20055;-35
2022/05/08 18:40:13;;;;;;;29.42;4.22;;;;;;;14.57;59.96;102691.88;5051059;28;20479;-33
2022/05/08 18:42:39;;;;;;;;;;;;;;;14.44;60.17;102693.16;5045760;28;20040;-34
2022/05/08 18:45:06;;;;;;;23.25;3.83;;;;;;;14.37;60.87;102691.25;5053092;28;19916;-34
2022/05/08 18:47:31;;;;;;;34.95;4.28;;;;;;;14.26;61.55;102695.94;5072059;28;20016;-34
2022/05/08 18:49:57;;;;;;;25.33;3.50;;;;;;;14.25;61.74;102702.38;5072628;28;20039;-34
2022/05/08 18:52:27;;;;;;;31.40;3.60;;;;;;;14.28;61.02;102695.78;5062794;28;20203;-35
2022/05/08 18:54:52;;;;;;;23.58;3.65;;;;;;;14.31;61.34;102689.19;5052409;28;20025;-36
2022/05/08 18:57:18;;;;;;;16.67;2.90;;;;;;;14.25;61.86;102701.53;5052497;28;20377;-35
2022/05/08 18:59:43;;;;;;;34.88;4.35;;;;;;;14.25;61.68;102701.53;5045999;28;20025;-34
2022/05/08 19:02:08;;;;;;;28.25;4.07;;;;;;;14.15;62.28;102712.47;5063496;28;20021;-34
2022/05/08 19:04:34;;;;;;;30.48;4.13;;;;;;;14.09;62.66;102699.56;5069254;28;20487;-34
2022/05/08 19:07:00;;;;;;;32.28;4.60;;;;;;;14.11;62.67;102702.09;5071214;28;20094;-34
2022/05/08 19:09:25;;;;;;;24.40;4.03;;;;;;;14.17;61.99;102705.03;5061577;28;20438;-35
2022/05/08 19:11:50;;;;;;;33.15;4.03;;;;;;;14.12;62.02;102701.94;5069112;28;20059;-34
2022/05/08 19:14:16;;;;;;;29.85;3.55;;;;;;;14.05;62.37;102703.59;5060565;28;20079;-36
2022/05/08 19:16:41;;;;;;;19.33;3.92;;;;;;;14.00;62.45;102697.81;5071197;28;20044;-35
2022/05/08 19:19:07;;;;;;;26.38;3.65;;;;;;;13.94;62.82;102701.16;5071921;28;20054;-34
2022/05/08 19:21:35;;;;;;;30.40;4.32;;;;;;;13.94;62.70;102706.56;5070350;28;20064;-36
2022/05/08 19:24:01;;;;;;;;;;;;;;;13.91;62.74;102709.59;5072714;28;20046;-36
2022/05/08 19:26:26;;;;;;;22.58;3.80;;;;;;;13.84;62.66;102707.50;5037532;28;19908;-35
2022/05/08 19:28:51;;;;;;;20.77;3.83;;;;;;;13.83;62.84;102711.22;5071606;28;20028;-34
2022/05/08 19:39:31;;;;;;;41.45;4.88;;;;;;;13.65;62.28;102723.09;5052260;28;20035;-33
2022/05/08 19:41:57;;;;;;;19.20;3.78;;;;;;;13.61;61.46;102728.81;5046029;28;20494;-36
2022/05/08 19:44:24;;;;;;;19.63;4.07;;;;;;;13.53;61.27;102730.59;5054767;28;20025;-34
2022/05/08 19:47:12;;;;;;;17.98;4.03;;;;;;;13.46;61.17;102732.22;5038343;28;20091;-34
2022/05/08 19:49:35;;;;;;;15.80;3.55;;;;;;;13.41;60.77;102745.38;5075002;28;20072;-33
2022/05/08 19:52:00;;;;;;;21.88;4.20;;;;;;;13.34;60.55;102743.25;5055694;28;20074;-33
2022/05/08 19:54:26;;;;;;;23.63;3.30;;;;;;;13.31;60.37;102740.88;5074378;28;20048;-35
2022/05/08 19:56:51;;;;;;;19.55;4.03;;;;;;;13.27;60.26;102736.78;5067230;28;20428;-34
2022/05/08 19:59:16;;;;;;;29.33;4.70;;;;;;;13.24;59.75;102744.31;5036295;28;20476;-35
2022/05/08 20:01:42;;;;;;;18.88;3.28;;;;;;;13.17;59.80;102744.06;5050610;28;20036;-34
2022/05/08 20:04:07;;;;;;;25.58;3.78;;;;;;;13.15;59.65;102751.47;5066662;28;20383;-33
2022/05/08 20:06:32;;;;;;;23.98;3.70;;;;;;;13.14;59.16;102741.69;5054879;28;20403;-34
2022/05/08 20:08:58;;;;;;;19.77;3.58;;;;;;;13.12;59.15;102749.09;5036999;28;20021;-34
2022/05/08 20:11:23;;;;;;;20.48;3.08;;;;;;;13.03;59.58;102749.97;5038709;28;20031;-34
2022/05/08 20:13:49;;;;;;;18.83;4.43;;;;;;;12.94;59.85;102749.88;5067520;28;20029;-33
2022/05/08 20:16:14;;;;;;;18.70;3.47;;;;;;;12.94;59.58;102752.59;5059316;28;20044;-33
2022/05/08 20:18:41;;;;;;;10.80;3.20;;;;;;;12.90;59.86;102753.03;5055296;28;20044;-34
2022/05/08 20:23:50;;;;;;;21.25;3.50;;;;;;;12.85;60.17;102758.03;5061343;28;20050;-33
2022/05/08 20:26:16;;;;;;;13.52;3.58;;;;;;;12.81;60.28;102751.25;5074844;28;20379;-37
2022/05/08 20:28:41;;;;;;;14.93;3.08;;;;;;;12.77;60.46;102749.84;5074359;28;20086;-35
2022/05/08 20:31:11;;;;;;;20.23;3.70;;;;;;;12.81;60.24;102756.66;5037261;28;20039;-36
2022/05/08 20:33:36;;;;;;;20.67;3.28;;;;;;;12.73;60.76;102754.69;5060248;28;20522;-34
2022/05/08 20:36:02;;;;;;;16.75;3.67;;;;;;;12.73;60.31;102760.09;5074227;28;20034;-34
2022/05/08 20:38:27;;;;;;;28.90;3.90;;;;;;;12.67;60.69;102760.72;5071001;28;20039;-34
2022/05/08 20:40:52;;;;;;;21.70;4.13;;;;;;;12.57;61.24;102754.50;5072532;28;20039;-35
2022/05/08 20:43:18;;;;;;;26.77;3.50;;;;;;;12.55;61.11;102760.03;5036620;28;20033;-36
2022/05/08 20:45:44;;;;;;;27.17;3.97;;;;;;;12.45;61.33;102768.19;5054242;28;20069;-37
2022/05/08 20:48:09;;;;;;;20.15;3.55;;;;;;;12.44;61.63;102766.47;5046880;28;20055;-35
2022/05/08 20:50:34;;;;;;;16.40;3.38;;;;;;;12.39;61.60;102760.66;5073691;28;20033;-35
2022/05/08 20:53:00;;;;;;;22.70;3.90;;;;;;;12.36;61.79;102769.06;5056072;28;20041;-35
2022/05/08 20:55:26;;;;;;;17.50;3.50;;;;;;;12.38;62.05;102764.38;5072044;28;20395;-37
2022/05/08 20:57:51;;;;;;;20.58;4.18;;;;;;;12.34;62.04;102767.50;5073204;28;20052;-35
2022/05/08 21:00:18;;;;;;;22.58;4.05;;;;;;;12.30;61.81;102766.94;5061183;28;20020;-34
2022/05/08 21:02:43;;;;;;;19.65;3.45;;;;;;;12.28;62.01;102760.84;5056075;28;20047;-36
2022/05/08 21:07:55;;;;;;;16.42;3.80;;;;;;;12.13;62.57;102760.44;5055528;28;20142;-34
2022/05/08 21:10:20;;;;;;;22.65;3.83;;;;;;;12.11;62.67;102761.56;5055892;28;20515;-34
2022/05/08 21:12:45;;;;;;;15.65;3.25;;;;;;;11.99;63.31;102761.75;5066150;28;20031;-38
2022/05/08 21:15:11;;;;;;;17.35;3.83;;;;;;;11.99;63.20;102767.16;5053156;28;20610;-35
2022/05/08 21:17:36;;;;;;;21.70;3.97;;;;;;;11.94;63.44;102773.97;5060988;28;20029;-38
2022/05/08 21:20:02;;;;;;;15.40;3.08;;;;;;;11.99;63.40;102769.00;5060365;28;20047;-34
2022/05/08 21:22:27;;;;;;;20.30;3.65;;;;;;;11.97;63.06;102766.44;5073149;28;20037;-38
2022/05/08 21:24:55;;;;;;;25.60;3.80;;;;;;;11.92;63.32;102763.31;5072629;28;20029;-36
2022/05/08 21:27:21;;;;;;;19.98;3.67;;;;;;;11.92;63.26;102763.31;5072350;28;20055;-37
2022/05/08 21:29:46;;;;;;;23.20;4.45;;;;;;;11.89;63.31;102754.66;5068874;28;20476;-36
2022/05/08 21:32:11;;;;;;;17.15;3.45;;;;;;;11.79;63.88;102751.94;5051834;28;20024;-37
2022/05/08 21:34:37;;;;;;;18.42;3.78;;;;;;;11.76;64.18;102763.00;5054037;28;20044;-34
2022/05/08 21:37:03;;;;;;;19.80;3.38;;;;;;;11.72;64.19;102761.63;5038947;28;20037;-36
2022/05/08 21:39:28;;;;;;;17.15;3.55;;;;;;;11.72;64.26;102758.91;5067044;28;20037;-34
2022/05/08 21:41:53;;;;;;;21.65;3.45;;;;;;;11.65;64.81;102756.75;5053323;28;20029;-35
2022/05/08 21:44:19;;;;;;;12.80;3.13;;;;;;;11.60;64.92;102761.72;5053003;28;20033;-34
2022/05/08 21:46:44;;;;;;;14.05;3.30;;;;;;;11.58;64.73;102765.56;5052646;28;20029;-37
2022/05/08 21:49:09;;;;;;;17.55;3.47;;;;;;;11.55;65.11;102768.56;5052929;28;20013;-37
2022/05/08 21:51:35;;;;;;;15.02;3.53;;;;;;;11.48;65.37;102768.28;5052625;28;20029;-34
2022/05/08 21:54:01;;;;;;;25.88;5.38;;;;;;;11.49;65.68;102772.66;5034509;28;20122;-36
2022/05/08 21:56:26;;;;;;;15.48;3.92;;;;;;;11.42;65.74;102764.28;5069051;28;20100;-34
2022/05/08 21:58:51;;;;;;;22.77;3.63;;;;;;;11.47;65.59;102765.72;5071392;28;20075;-35
2022/05/08 22:01:17;;;;;;;20.63;3.70;;;;;;;11.42;66.07;102763.44;5072164;28;20024;-36
2022/05/08 22:03:42;;;;;;;23.23;3.80;;;;;;;11.38;65.78;102762.88;5062085;28;20345;-36
2022/05/08 22:06:08;;;;;;;23.50;3.50;;;;;;;11.40;65.85;102757.31;5061387;28;20035;-36
2022/05/08 22:08:33;;;;;;;19.55;3.90;;;;;;;11.35;65.74;102762.31;5072563;28;20044;-35
2022/05/08 22:11:00;;;;;;;18.45;3.92;;;;;;;11.30;66.27;102765.41;5049671;28;20032;-33
2022/05/08 22:13:25;;;;;;;17.42;3.92;;;;;;;11.27;66.55;102759.44;5072296;28;20028;-35
2022/05/08 22:15:50;;;;;;;21.52;3.90;;;;;;;11.25;66.28;102762.28;5061388;28;20044;-35
2022/05/08 22:21:00;;;;;;;21.58;4.55;;;;;;;11.15;67.30;102767.63;5054255;28;20128;-33
2022/05/08 22:23:25;;;;;;;19.73;3.83;;;;;;;11.09;67.59;102779.00;5052174;28;20159;-34
2022/05/08 22:25:51;;;;;;;29.60;4.35;;;;;;;11.11;67.48;102765.34;5034150;28;20498;-36
2022/05/08 22:28:16;;;;;;;19.77;4.25;;;;;;;11.03;67.55;102767.88;5052618;28;20538;-35
2022/05/08 22:30:42;;;;;;;25.30;4.03;;;;;;;11.07;68.07;102769.34;5056141;28;20120;-34
2022/05/08 22:33:07;;;;;;;16.77;4.03;;;;;;;11.07;67.68;102775.56;5052296;28;20531;-35
2022/05/08 22:35:32;;;;;;;18.00;4.90;;;;;;;11.10;67.88;102774.44;5051992;28;20051;-34
2022/05/08 22:37:58;;;;;;;12.85;4.05;;;;;;;11.09;67.72;102773.59;5052160;28;20073;-34
2022/05/08 22:40:23;;;;;;;23.73;4.63;;;;;;;11.05;68.37;102768.63;5063405;28;20028;-34
2022/05/08 22:42:48;;;;;;;14.90;2.83;;;;;;;11.01;68.09;102770.75;5072109;28;20024;-35
2022/05/08 22:45:14;;;;;;;24.75;4.55;;;;;;;11.01;68.23;102776.13;5069555;28;20117;-35
2022/05/08 22:47:39;;;;;;;32.38;4.90;;;;;;;10.97;68.39;102775.53;5053885;28;20071;-36
2022/05/08 22:50:05;;;;;;;23.10;4.25;;;;;;;10.93;68.67;102775.97;5065636;28;20437;-33
2022/05/08 22:52:30;;;;;;;14.38;3.60;;;;;;;10.93;68.55;102768.72;5051077;28;20744;-35
2022/05/08 22:54:55;;;;;;;23.30;4.40;;;;;;;10.92;68.53;102768.84;5051528;28;20098;-34
2022/05/08 22:57:22;;;;;;;36.50;6.72;;;;;;;10.88;68.52;102770.97;5034138;28;20431;-34
2022/05/08 22:59:47;;;;;;;17.33;4.50;;;;;;;10.85;68.96;102765.00;5058498;28;20033;-34
2022/05/08 23:02:12;;;;;;;21.75;4.47;;;;;;;10.87;68.45;102765.72;5053274;28;20413;-35
2022/05/08 23:04:38;;;;;;;20.30;4.30;;;;;;;10.80;68.71;102767.28;5069744;28;20111;-34
2022/05/08 23:07:03;;;;;;;16.38;3.97;;;;;;;10.74;68.98;102758.75;5071182;28;20032;-35
2022/05/08 23:09:29;;;;;;;28.13;5.63;;;;;;;10.69;69.23;102766.38;5070660;28;20543;-35
2022/05/08 23:11:54;;;;;;;23.23;4.65;;;;;;;10.64;69.47;102762.41;5070385;28;20162;-33
2022/05/08 23:17:27;;;;;;;26.40;4.50;;;;;;;10.57;69.65;102756.69;5063039;28;20434;-34
2022/05/08 23:19:52;;;;;;;12.77;3.60;;;;;;;10.50;70.11;102768.97;5068560;28;20032;-35
2022/05/08 23:22:18;;;;;;;15.60;3.78;;;;;;;10.44;70.24;102762.28;5057301;28;20016;-35
2022/05/08 23:24:43;;;;;;;15.18;3.83;;;;;;;10.44;70.50;102761.44;5070589;28;20090;-34
2022/05/08 23:27:08;;;;;;;18.33;3.90;;;;;;;10.41;70.38;102767.09;5064815;28;20540;-34
2022/05/08 23:29:34;;;;;;;16.40;3.58;;;;;;;10.40;70.27;102754.59;5065412;28;20064;-34
2022/05/08 23:31:59;;;;;;;25.42;4.43;;;;;;;10.36;70.63;102764.78;5057535;28;20065;-34
2022/05/08 23:34:25;;;;;;;19.35;4.43;;;;;;;10.31;70.87;102756.28;5054875;28;20041;-34
2022/05/08 23:36:50;;;;;;;22.80;4.15;;;;;;;10.30;71.03;102755.41;5054958;28;20029;-36
2022/05/08 23:39:15;;;;;;;17.77;3.60;;;;;;;10.29;71.27;102753.72;5055443;28;20476;-34
2022/05/08 23:41:41;;;;;;;19.38;4.45;;;;;;;10.26;71.62;102756.63;5055047;28;20021;-34
2022/05/08 23:44:06;;;;;;;12.35;4.75;;;;;;;10.22;71.83;102752.50;5055250;28;20527;-35
2022/05/08 23:46:31;;;;;;;16.63;3.90;;;;;;;10.30;71.66;102755.41;5037134;28;20025;-34
2022/05/08 23:48:57;;;;;;;22.75;4.22;;;;;;;10.30;71.51;102749.19;5055537;28;20373;-33
2022/05/08 23:51:22;;;;;;;22.70;5.18;;;;;;;10.26;71.28;102753.94;5065668;28;20032;-35
2022/05/08 23:53:47;;;;;;;22.38;5.35;;;;;;;10.32;71.42;102747.19;5056256;28;20143;-35
2022/05/08 23:56:13;;;;;;;25.15;4.40;;;;;;;10.33;71.46;102748.91;5074815;28;20028;-34
2022/05/08 23:58:39;;;;;;;23.08;4.10;;;;;;;10.27;71.60;102744.06;5071766;28;20033;-34
